| time (UTC) | temp C | wind direction | speed KPH | gust KPH | rain 1hr cm | rain 24hr cm | rain mn cm | humidity % | barometer mb |
| 20260505204545 | 27 | 212 | 14.5 | 0.0 | 0.00 | 0.00 | 0.00 | 6 | 1002.6 |
| 20260505203109 | 27 | 233 | 12.9 | 0.0 | 0.00 | 0.00 | 0.00 | 6 | 1002.7 |
| 20260505201532 | 27 | 241 | 14.5 | 0.0 | 0.00 | 0.00 | 0.00 | 7 | 1002.6 |
| 20260505200046 | 27 | 168 | 14.5 | 0.0 | 0.00 | 0.00 | 0.00 | 7 | 1002.7 |
| 20260505194550 | 26 | 174 | 12.9 | 0.0 | 0.00 | 0.00 | 0.00 | 8 | 1002.8 |
| 20260505193037 | 26 | 229 | 17.7 | 0.0 | 0.00 | 0.00 | 0.00 | 6 | 1003.1 |
| 20260505191556 | 27 | 213 | 12.9 | 0.0 | 0.00 | 0.00 | 0.00 | 9 | 1003.1 |
| 20260505190107 | 27 | 212 | 16.1 | 0.0 | 0.00 | 0.00 | 0.00 | 7 | 1003.5 |
| 20260505184534 | 26 | 202 | 16.1 | 0.0 | 0.00 | 0.00 | 0.00 | 7 | 1003.6 |
| 20260505183054 | 26 | 202 | 14.5 | 0.0 | 0.00 | 0.00 | 0.00 | 8 | 1003.6 |
| 20260505181548 | 26 | 219 | 12.9 | 0.0 | 0.00 | 0.00 | 0.00 | 8 | 1004.0 |
| 20260505180038 | 26 | 202 | 16.1 | 0.0 | 0.00 | 0.00 | 0.00 | 8 | 1004.2 |
| 20260505174609 | 26 | 224 | 11.3 | 0.0 | 0.00 | 0.00 | 0.00 | 8 | 1004.1 |
| 20260505173044 | 26 | 226 | 14.5 | 0.0 | 0.00 | 0.00 | 0.00 | 10 | 1004.2 |
| 20260505171544 | 26 | 200 | 11.3 | 0.0 | 0.00 | 0.00 | 0.00 | 11 | 1004.3 |
| 20260505170033 | 25 | 248 | 11.3 | 0.0 | 0.00 | 0.00 | 0.00 | 12 | 1004.7 |
| 20260505164606 | 25 | 171 | 12.9 | 0.0 | 0.00 | 0.00 | 0.00 | 12 | 1004.7 |
| 20260505163030 | 25 | 267 | 12.9 | 0.0 | 0.00 | 0.00 | 0.00 | 14 | 1005.1 |
| 20260505161622 | 25 | 244 | 12.9 | 0.0 | 0.00 | 0.00 | 0.00 | 12 | 1005.2 |
| 20260505153031 | 24 | 284 | 9.7 | 0.0 | 0.00 | 0.00 | 0.00 | 15 | 1005.3 |
| 20260505151554 | 23 | 192 | 11.3 | 0.0 | 0.00 | 0.00 | 0.00 | 17 | 1005.3 |
| 20260505124544 | 16 | 37 | 0.0 | 0.0 | 0.00 | 0.00 | 0.00 | 41 | 1006.8 |
| 20260505123046 | 15 | 61 | 0.0 | 0.0 | 0.00 | 0.00 | 0.00 | 49 | 1006.7 |
| 20260505121538 | 14 | 64 | 1.6 | 0.0 | 0.00 | 0.00 | 0.00 | 55 | 1006.5 |
| 20260505120053 | 13 | 61 | 0.0 | 0.0 | 0.00 | 0.00 | 0.00 | 61 | 1006.2 |
| 20260505114603 | 12 | 349 | 0.0 | 0.0 | 0.00 | 0.00 | 0.00 | 61 | 1006.2 |
| 20260505113113 | 10 | 62 | 0.0 | 0.0 | 0.00 | 0.00 | 0.00 | 61 | 1006.2 |
| 20260505111546 | 10 | 62 | 0.0 | 0.0 | 0.00 | 0.00 | 0.00 | 60 | 1006.2 |
| 20260505101541 | 9 | 69 | 0.0 | 0.0 | 0.00 | 0.00 | 0.00 | 58 | 1005.5 |
| 20260505100045 | 9 | 69 | 0.0 | 0.0 | 0.00 | 0.00 | 0.00 | 57 | 1005.5 |
| 20260505094535 | 9 | 68 | 0.0 | 0.0 | 0.00 | 0.00 | 0.00 | 57 | 1005.5 |
| 20260505093102 | 10 | 68 | 0.0 | 0.0 | 0.00 | 0.00 | 0.00 | 57 | 1005.5 |
| 20260505091533 | 10 | 68 | 0.0 | 0.0 | 0.00 | 0.00 | 0.00 | 57 | 1005.4 |
| 20260505090047 | 10 | 66 | 0.0 | 0.0 | 0.00 | 0.00 | 0.00 | 56 | 1005.2 |
| 20260505084532 | 10 | 66 | 0.0 | 0.0 | 0.00 | 0.00 | 0.00 | 55 | 1005.2 |
| 20260505083056 | 10 | 65 | 0.0 | 0.0 | 0.00 | 0.00 | 0.00 | 55 | 1005.2 |
| 20260505081549 | 11 | 65 | 0.0 | 0.0 | 0.00 | 0.00 | 0.00 | 54 | 1005.2 |
| 20260505080033 | 11 | 65 | 0.0 | 0.0 | 0.00 | 0.00 | 0.00 | 54 | 1005.2 |
| 20260505074546 | 11 | 65 | 0.0 | 0.0 | 0.00 | 0.00 | 0.00 | 53 | 1005.0 |
| 20260505073043 | 11 | 64 | 0.0 | 0.0 | 0.00 | 0.00 | 0.00 | 53 | 1004.9 |
| 20260505071534 | 11 | 64 | 1.6 | 0.0 | 0.00 | 0.00 | 0.00 | 52 | 1004.8 |
| 20260505070118 | 11 | 65 | 0.0 | 0.0 | 0.00 | 0.00 | 0.00 | 51 | 1004.9 |
| 20260505064552 | 11 | 65 | 1.6 | 0.0 | 0.00 | 0.00 | 0.00 | 52 | 1005.1 |
| 20260505063044 | 11 | 65 | 0.0 | 0.0 | 0.00 | 0.00 | 0.00 | 52 | 1005.3 |
| 20260505061527 | 11 | 65 | 0.0 | 0.0 | 0.00 | 0.00 | 0.00 | 51 | 1005.2 |
| 20260505060056 | 11 | 65 | 0.0 | 0.0 | 0.00 | 0.00 | 0.00 | 49 | 1005.2 |
| 20260505054546 | 11 | 65 | 0.0 | 0.0 | 0.00 | 0.00 | 0.00 | 48 | 1005.2 |
| 20260505053032 | 11 | 65 | 0.0 | 0.0 | 0.00 | 0.00 | 0.00 | 47 | 1005.2 |
| 20260505051613 | 11 | 65 | 0.0 | 0.0 | 0.00 | 0.00 | 0.00 | 44 | 1005.2 |
| 20260505041542 | 11 | 64 | 0.0 | 0.0 | 0.00 | 0.00 | 0.00 | 38 | 1005.0 |
| 20260505040144 | 12 | 65 | 1.6 | 0.0 | 0.00 | 0.00 | 0.00 | 38 | 1004.8 |
| 20260505034534 | 12 | 64 | 1.6 | 0.0 | 0.00 | 0.00 | 0.00 | 35 | 1005.0 |
| 20260505033048 | 13 | 64 | 0.0 | 0.0 | 0.00 | 0.00 | 0.00 | 32 | 1004.9 |
| 20260505031555 | 13 | 64 | 1.6 | 0.0 | 0.00 | 0.00 | 0.00 | 31 | 1004.8 |
| 20260505030044 | 13 | 66 | 0.0 | 0.0 | 0.00 | 0.00 | 0.00 | 29 | 1004.9 |
| 20260505024534 | 13 | 66 | 1.6 | 0.0 | 0.00 | 0.00 | 0.00 | 28 | 1004.9 |
| 20260505023121 | 14 | 66 | 0.0 | 0.0 | 0.00 | 0.00 | 0.00 | 26 | 1004.6 |
| 20260505021559 | 15 | 66 | 1.6 | 0.0 | 0.00 | 0.00 | 0.00 | 24 | 1004.8 |
| 20260505020052 | 16 | 66 | 1.6 | 0.0 | 0.00 | 0.00 | 0.00 | 21 | 1004.9 |
| 20260505014548 | 16 | 175 | 0.0 | 0.0 | 0.00 | 0.00 | 0.00 | 20 | 1004.8 |
| 20260505013052 | 16 | 174 | 1.6 | 0.0 | 0.00 | 0.00 | 0.00 | 19 | 1004.8 |
| 20260505011544 | 17 | 167 | 3.2 | 0.0 | 0.00 | 0.00 | 0.00 | 18 | 1004.7 |
| 20260505010055 | 17 | 167 | 1.6 | 0.0 | 0.00 | 0.00 | 0.00 | 18 | 1004.7 |
| 20260505004546 | 18 | 157 | 3.2 | 0.0 | 0.00 | 0.00 | 0.00 | 16 | 1004.3 |
| 20260505003043 | 18 | 144 | 6.4 | 0.0 | 0.00 | 0.00 | 0.00 | 15 | 1004.2 |
| 20260505001547 | 18 | 130 | 6.4 | 0.0 | 0.00 | 0.00 | 0.00 | 15 | 1004.1 |
| 20260505000039 | 19 | 155 | 8.0 | 0.0 | 0.00 | 0.00 | 0.00 | 14 | 1004.1 |
| 20260504234551 | 20 | 154 | 6.4 | 0.0 | 0.00 | 0.00 | 0.00 | 13 | 1003.8 |
| 20260504233105 | 21 | 360 | 4.8 | 0.0 | 0.00 | 0.00 | 0.00 | 11 | 1003.6 |
| 20260504231541 | 21 | 203 | 6.4 | 0.0 | 0.00 | 0.00 | 0.00 | 11 | 1003.7 |
| 20260504230032 | 22 | 210 | 9.7 | 0.0 | 0.00 | 0.00 | 0.00 | 10 | 1003.8 |
| 20260504224544 | 22 | 193 | 9.7 | 0.0 | 0.00 | 0.00 | 0.00 | 10 | 1003.6 |
| 20260504223103 | 22 | 203 | 9.7 | 0.0 | 0.00 | 0.00 | 0.00 | 9 | 1003.6 |
| 20260504221533 | 22 | 232 | 8.0 | 0.0 | 0.00 | 0.00 | 0.00 | 9 | 1003.6 |
| 20260504220046 | 22 | 171 | 11.3 | 0.0 | 0.00 | 0.00 | 0.00 | 8 | 1003.6 |
| 20260504214616 | 22 | 185 | 8.0 | 0.0 | 0.00 | 0.00 | 0.00 | 9 | 1003.7 |
| 20260504213050 | 22 | 172 | 9.7 | 0.0 | 0.00 | 0.00 | 0.00 | 7 | 1003.8 |
| 20260504211544 | 22 | 205 | 8.0 | 0.0 | 0.00 | 0.00 | 0.00 | 9 | 1003.7 |